createdAt,value
2022-11-07T00:03:19.611Z,99876.28
2022-11-07T00:08:32.207Z,99866.89
2022-11-07T00:13:37.283Z,99866.02
2022-11-07T00:18:42.364Z,99876.50
2022-11-07T00:23:46.708Z,99884.51
2022-11-07T00:28:51.118Z,99883.70
2022-11-07T00:33:56.878Z,99882.52
2022-11-07T00:39:02.697Z,99879.46
2022-11-07T00:44:07.668Z,99873.50
2022-11-07T00:49:12.622Z,99864.10
2022-11-07T00:54:17.857Z,99852.02
2022-11-07T00:59:23.416Z,99828.21
2022-11-07T01:04:46.849Z,99828.20
2022-11-07T01:09:52.221Z,99823.23
2022-11-07T01:14:57.470Z,99816.69
2022-11-07T01:20:02.952Z,99813.30
2022-11-07T01:25:08.161Z,99797.91
2022-11-07T01:30:13.214Z,99789.69
2022-11-07T01:35:18.114Z,99785.48
2022-11-07T01:40:23.567Z,99781.16
2022-11-07T01:45:32.229Z,99780.91
2022-11-07T01:50:36.202Z,99773.27
2022-11-07T01:55:41.461Z,99769.42
2022-11-07T02:00:46.596Z,99762.80
2022-11-07T02:05:57.579Z,99753.88
2022-11-07T02:11:05.334Z,99746.22
2022-11-07T02:16:09.867Z,99740.33
2022-11-07T02:21:46.124Z,99741.91
2022-11-07T02:26:52.584Z,99739.80
2022-11-07T02:32:03.311Z,99732.52
2022-11-07T02:37:19.309Z,99727.16
2022-11-07T02:42:24.378Z,99718.98
2022-11-07T02:47:29.765Z,99708.91
2022-11-07T02:52:34.596Z,99705.36
2022-11-07T02:57:40.243Z,99702.25
2022-11-07T03:02:48.383Z,99699.95
2022-11-07T03:07:53.750Z,99699.36
2022-11-07T03:12:58.445Z,99710.83
2022-11-07T03:18:03.170Z,99709.05
2022-11-07T03:23:08.600Z,99710.77
2022-11-07T03:28:13.144Z,99715.45
2022-11-07T03:33:18.109Z,99713.45
2022-11-07T03:38:22.076Z,99704.03
2022-11-07T03:43:26.220Z,99695.14
2022-11-07T03:48:30.069Z,99686.03
2022-11-07T03:53:34.919Z,99678.39
2022-11-07T03:58:38.997Z,99676.17
2022-11-07T04:09:23.979Z,99679.48
2022-11-07T04:14:46.934Z,99681.31
2022-11-07T04:19:55.132Z,99679.70
2022-11-07T04:24:59.028Z,99666.63
2022-11-07T04:30:19.825Z,99670.13
2022-11-07T04:35:26.218Z,99670.64
2022-11-07T04:40:30.136Z,99670.39
2022-11-07T04:45:34.049Z,99676.16
2022-11-07T04:50:37.697Z,99668.33
2022-11-07T04:55:41.592Z,99658.52
2022-11-07T05:00:45.656Z,99663.59
2022-11-07T05:05:49.761Z,99667.91
2022-11-07T05:10:53.521Z,99675.41
2022-11-07T05:15:58.930Z,99674.52
2022-11-07T05:21:02.433Z,99687.14
2022-11-07T05:26:10.905Z,99675.36
2022-11-07T05:31:18.386Z,99674.84
2022-11-07T05:36:24.202Z,99675.43
2022-11-07T05:41:27.442Z,99680.70
2022-11-07T05:46:31.253Z,99685.48
2022-11-07T05:51:34.854Z,99686.14
2022-11-07T05:56:38.811Z,99691.14
2022-11-07T06:01:47.643Z,99696.60
2022-11-07T06:06:54.698Z,99699.89
2022-11-07T06:11:58.727Z,99693.94
2022-11-07T06:17:03.938Z,99695.96
2022-11-07T06:22:10.093Z,99704.11
2022-11-07T06:27:15.030Z,99705.83
2022-11-07T06:32:20.463Z,99704.62
2022-11-07T06:37:27.085Z,99711.08
2022-11-07T06:42:33.144Z,99711.88
2022-11-07T06:47:38.418Z,99713.81
2022-11-07T06:52:41.927Z,99721.16
2022-11-07T06:57:46.135Z,99722.06
2022-11-07T07:02:58.462Z,99724.95
2022-11-07T07:08:07.142Z,99723.99
2022-11-07T07:13:19.959Z,99727.06
2022-11-07T07:18:25.435Z,99723.86
2022-11-07T07:23:29.507Z,99722.67
2022-11-07T07:28:33.704Z,99725.75
2022-11-07T07:33:38.023Z,99719.25
2022-11-07T07:38:42.740Z,99711.55
2022-11-07T07:43:47.157Z,99719.55
2022-11-07T07:48:51.937Z,99721.45
2022-11-07T07:53:57.046Z,99727.29
2022-11-07T07:59:01.467Z,99728.19
2022-11-07T08:04:06.419Z,99738.96
2022-11-07T08:09:11.948Z,99743.98
2022-11-07T08:14:15.374Z,99750.31
2022-11-07T08:19:19.953Z,99748.81
2022-11-07T08:24:24.826Z,99748.55
2022-11-07T08:29:33.215Z,99745.10
2022-11-07T08:34:38.136Z,99741.12
2022-11-07T08:39:44.201Z,99740.67
2022-11-07T08:44:50.479Z,99742.54
2022-11-07T08:49:55.974Z,99754.27
2022-11-07T08:55:01.484Z,99756.80
2022-11-07T09:00:07.763Z,99756.33
2022-11-07T09:05:12.573Z,99754.96
2022-11-07T09:10:17.348Z,99758.89
2022-11-07T09:15:22.268Z,99760.22
2022-11-07T09:20:27.613Z,99764.05
2022-11-07T09:25:33.271Z,99761.23
2022-11-07T09:30:37.572Z,99758.50
2022-11-07T09:35:42.578Z,99754.27
2022-11-07T09:41:35.222Z,99763.44
2022-11-07T09:46:49.267Z,99768.74
2022-11-07T09:52:06.228Z,99771.47
2022-11-07T09:57:17.984Z,99770.71
2022-11-07T10:02:28.542Z,99759.64
2022-11-07T10:07:47.903Z,99753.77
2022-11-07T10:13:01.401Z,99757.96
2022-11-07T10:18:36.246Z,99761.96
2022-11-07T10:24:08.961Z,99767.58
2022-11-07T10:29:19.792Z,99765.17
2022-11-07T10:34:55.796Z,99759.09
2022-11-07T10:40:01.017Z,99762.62
2022-11-07T10:45:15.072Z,99759.94
2022-11-07T10:50:23.484Z,99758.27
2022-11-07T10:55:29.646Z,99760.96
2022-11-07T11:00:40.643Z,99759.23
2022-11-07T11:05:48.302Z,99761.19
2022-11-07T11:10:53.974Z,99762.75
2022-11-07T11:16:05.547Z,99761.05
2022-11-07T11:21:11.554Z,99760.86
2022-11-07T11:26:31.488Z,99763.33
2022-11-07T11:31:58.065Z,99769.55
2022-11-07T11:37:17.416Z,99777.57
2022-11-07T11:42:53.435Z,99788.01
2022-11-07T11:48:13.078Z,99789.52
2022-11-07T11:53:21.836Z,99786.15
2022-11-07T11:58:37.906Z,99788.66
2022-11-07T12:04:20.771Z,99784.01
2022-11-07T12:09:49.789Z,99783.80
2022-11-07T12:15:03.763Z,99777.50
2022-11-07T12:20:34.986Z,99784.19
2022-11-07T12:26:15.532Z,99785.35
2022-11-07T12:31:47.705Z,99785.60
2022-11-07T12:37:03.932Z,99788.89
2022-11-07T12:42:09.916Z,99786.61
2022-11-07T12:47:43.534Z,99791.75
2022-11-07T12:53:04.104Z,99795.33
2022-11-07T12:58:32.673Z,99795.65
2022-11-07T13:03:56.295Z,99796.29
2022-11-07T13:09:20.111Z,99801.79
2022-11-07T13:14:32.104Z,99809.81
2022-11-07T13:19:41.940Z,99809.98
2022-11-07T13:25:05.830Z,99808.22
2022-11-07T13:30:18.309Z,99807.84
2022-11-07T13:35:34.730Z,99812.20
2022-11-07T13:40:54.549Z,99813.55
2022-11-07T16:27:01.080Z,99881.54
2022-11-07T16:32:04.449Z,99882.98
2022-11-07T16:37:12.055Z,99884.68
2022-11-07T16:42:17.619Z,99887.44
2022-11-07T16:47:21.050Z,99884.16
2022-11-07T16:52:25.769Z,99887.71
2022-11-07T16:57:30.228Z,99887.60
2022-11-07T17:02:34.731Z,99886.26
2022-11-07T17:07:39.403Z,99884.59
2022-11-07T17:12:43.860Z,99877.55
2022-11-07T17:17:48.961Z,99871.26
2022-11-07T17:22:56.412Z,99877.13
2022-11-07T17:28:00.203Z,99884.02
2022-11-07T17:33:04.331Z,99882.02
2022-11-07T17:38:16.935Z,99880.02
2022-11-07T17:43:21.457Z,99874.01
2022-11-07T17:48:25.499Z,99875.55
2022-11-07T17:53:32.536Z,99880.34
2022-11-07T17:58:36.571Z,99878.69
2022-11-07T18:03:39.918Z,99875.67
2022-11-07T18:08:52.114Z,99879.63
2022-11-07T18:14:00.973Z,99887.09
2022-11-07T18:19:07.027Z,99892.11
2022-11-07T18:24:11.256Z,99887.61
2022-11-07T18:29:15.628Z,99887.20
2022-11-07T18:34:20.854Z,99891.13
2022-11-07T18:39:25.717Z,99889.70
2022-11-07T18:44:31.579Z,99893.69
2022-11-07T18:49:39.190Z,99885.68
2022-11-07T18:54:43.599Z,99892.52
2022-11-07T18:59:47.491Z,99893.77
2022-11-07T19:04:52.039Z,99891.27
2022-11-07T19:09:57.161Z,99888.36
2022-11-07T19:15:01.504Z,99889.23
2022-11-07T19:20:06.578Z,99889.10
2022-11-07T19:25:11.504Z,99894.13
2022-11-07T19:30:16.245Z,99898.17
2022-11-07T19:35:19.864Z,99899.85
2022-11-07T19:40:25.667Z,99910.65
2022-11-07T19:45:30.316Z,99909.47
2022-11-07T19:50:34.198Z,99909.98
2022-11-07T19:55:40.316Z,99911.47
2022-11-07T20:00:45.494Z,99914.13
2022-11-07T20:05:51.750Z,99910.83
2022-11-07T20:10:55.403Z,99916.63
2022-11-07T20:16:02.419Z,99921.64
2022-11-07T20:21:13.995Z,99921.17
2022-11-07T20:26:20.372Z,99925.54
2022-11-07T20:31:28.362Z,99922.00
2022-11-07T20:36:33.571Z,99924.07
2022-11-07T20:41:38.174Z,99927.45
2022-11-07T20:46:45.840Z,99927.32
2022-11-07T20:51:49.941Z,99929.92
2022-11-07T20:56:53.989Z,99929.04
2022-11-07T21:02:03.214Z,99918.90
2022-11-07T21:07:07.965Z,99917.86
2022-11-07T21:12:13.735Z,99921.56
2022-11-07T21:17:17.354Z,99924.42
2022-11-07T21:22:26.639Z,99922.27
2022-11-07T21:27:37.307Z,99927.55
2022-11-07T21:32:41.185Z,99930.28
2022-11-07T21:37:46.942Z,99927.92
2022-11-07T21:42:55.161Z,99927.84
2022-11-07T21:47:59.222Z,99929.63
2022-11-07T21:53:03.507Z,99928.62
2022-11-07T21:58:07.489Z,99924.02
2022-11-07T22:03:11.571Z,99925.20
2022-11-07T22:08:21.080Z,99923.91
2022-11-07T22:13:27.838Z,99922.77
2022-11-07T22:18:31.533Z,99920.19
2022-11-07T22:23:36.840Z,99923.42
2022-11-07T22:28:45.556Z,99919.91
2022-11-07T22:33:51.086Z,99925.80
2022-11-07T22:38:58.044Z,99927.06
2022-11-07T22:44:01.403Z,99925.71
2022-11-07T22:49:05.288Z,99925.44
2022-11-07T22:54:12.099Z,99928.11
2022-11-07T22:59:15.608Z,99931.14
2022-11-07T23:04:19.302Z,99933.67
2022-11-07T23:09:23.718Z,99930.48
2022-11-07T23:14:27.533Z,99927.56
2022-11-07T23:19:31.685Z,99926.65
2022-11-07T23:24:35.842Z,99927.79
2022-11-07T23:29:39.588Z,99925.10
2022-11-07T23:34:43.988Z,99924.43
2022-11-07T23:39:47.653Z,99926.30
2022-11-07T23:45:10.522Z,99929.45
2022-11-07T23:50:33.511Z,99925.04
2022-11-07T23:55:42.879Z,99924.65
